createdAt,value
2023-10-28T00:00:57.106Z,95289.31
2023-10-28T00:03:25.314Z,95287.97
2023-10-28T00:05:53.488Z,95291.38
2023-10-28T00:08:21.736Z,95300.66
2023-10-28T00:10:50.339Z,95306.53
2023-10-28T00:13:18.686Z,95304.16
2023-10-28T00:15:52.590Z,95308.00
2023-10-28T00:26:11.889Z,95311.66
2023-10-28T00:28:41.882Z,95316.47
2023-10-28T00:31:18.997Z,95322.94
2023-10-28T00:33:48.228Z,95317.38
2023-10-28T00:36:16.710Z,95321.63
2023-10-28T00:38:45.043Z,95314.75
2023-10-28T00:41:14.962Z,95319.59
2023-10-28T00:43:43.422Z,95322.44
2023-10-28T00:46:13.497Z,95323.22
2023-10-28T00:48:42.141Z,95329.06
2023-10-28T00:51:10.760Z,95323.59
2023-10-28T00:53:39.737Z,95331.69
2023-10-28T00:56:08.667Z,95337.94
2023-10-28T00:58:38.212Z,95330.50
2023-10-28T01:01:09.745Z,95336.28
2023-10-28T01:03:41.489Z,95332.28
2023-10-28T01:06:11.962Z,95341.88
2023-10-28T01:08:41.244Z,95342.97
2023-10-28T01:11:10.799Z,95345.34
2023-10-28T01:13:40.001Z,95352.41
2023-10-28T01:16:10.545Z,95357.50
2023-10-28T01:18:40.448Z,95360.63
2023-10-28T01:21:14.303Z,95370.31
2023-10-28T01:23:44.832Z,95373.91
2023-10-28T01:26:13.804Z,95371.81
2023-10-28T01:28:42.475Z,95376.41
2023-10-28T01:31:11.408Z,95382.75
2023-10-28T01:33:39.582Z,95377.66
2023-10-28T01:36:09.110Z,95377.31
2023-10-28T01:38:39.155Z,95381.53
2023-10-28T01:41:07.816Z,95388.94
2023-10-28T01:43:36.669Z,95391.28
2023-10-28T01:46:05.892Z,95386.75
2023-10-28T01:48:34.298Z,95387.50
2023-10-28T01:51:03.170Z,95383.44
2023-10-28T01:53:35.385Z,95387.81
2023-10-28T01:56:07.293Z,95390.44
2023-10-28T01:58:35.670Z,95388.22
2023-10-28T02:01:04.578Z,95383.44
2023-10-28T02:03:33.746Z,95387.50
2023-10-28T02:06:01.978Z,95386.34
2023-10-28T02:08:30.436Z,95383.72
2023-10-28T02:10:58.925Z,95377.44
2023-10-28T02:13:28.975Z,95377.44
2023-10-28T02:15:57.961Z,95374.53
2023-10-28T02:18:26.762Z,95373.63
2023-10-28T02:20:56.507Z,95375.09
2023-10-28T02:23:24.753Z,95370.03
2023-10-28T02:25:54.028Z,95375.94
2023-10-28T02:28:22.666Z,95384.09
2023-10-28T02:30:53.146Z,95385.00
2023-10-28T02:33:21.544Z,95382.25
2023-10-28T02:35:49.793Z,95381.88
2023-10-28T02:38:18.810Z,95375.56
2023-10-28T02:40:48.323Z,95381.63
2023-10-28T02:43:16.859Z,95386.38
2023-10-28T02:45:45.943Z,95384.97
2023-10-28T02:48:15.810Z,95390.75
2023-10-28T02:50:44.173Z,95396.59
2023-10-28T02:53:12.697Z,95399.16
2023-10-28T02:55:41.787Z,95404.91
2023-10-28T02:58:11.173Z,95395.75
2023-10-28T03:00:39.705Z,95405.22
2023-10-28T03:03:08.383Z,95409.28
2023-10-28T03:05:37.915Z,95413.47
2023-10-28T03:08:06.874Z,95416.94
2023-10-28T03:10:36.340Z,95406.53
2023-10-28T03:13:05.138Z,95408.69
2023-10-28T03:15:33.509Z,95405.47
2023-10-28T03:18:02.757Z,95409.72
2023-10-28T03:20:31.409Z,95409.84
2023-10-28T03:23:01.122Z,95413.44
2023-10-28T03:25:29.913Z,95412.47
2023-10-28T03:27:59.428Z,95412.69
2023-10-28T03:30:28.476Z,95407.88
2023-10-28T03:32:57.943Z,95423.00
2023-10-28T03:35:26.430Z,95412.31
2023-10-28T03:37:56.864Z,95418.34
2023-10-28T03:40:27.718Z,95421.13
2023-10-28T03:42:56.699Z,95428.41
2023-10-28T03:45:26.138Z,95430.59
2023-10-28T03:47:54.797Z,95433.63
2023-10-28T03:50:23.592Z,95429.16
2023-10-28T03:52:52.231Z,95422.91
2023-10-28T03:55:19.424Z,95424.38
2023-10-28T03:57:49.154Z,95423.53
2023-10-28T04:00:17.796Z,95429.16
2023-10-28T04:02:46.440Z,95426.88
2023-10-28T04:05:15.134Z,95422.66
2023-10-28T04:07:44.169Z,95429.09
2023-10-28T04:10:12.611Z,95435.16
2023-10-28T04:12:41.927Z,95435.16
2023-10-28T04:15:14.400Z,95438.09
2023-10-28T04:17:43.228Z,95440.91
2023-10-28T04:20:12.245Z,95437.53
2023-10-28T04:22:41.341Z,95447.97
2023-10-28T04:25:09.766Z,95445.31
2023-10-28T04:27:38.446Z,95443.75
2023-10-28T04:30:08.833Z,95445.16
2023-10-28T04:32:39.126Z,95449.00
2023-10-28T04:35:15.740Z,95446.72
2023-10-28T04:37:55.228Z,95453.03
2023-10-28T04:40:23.840Z,95452.63
2023-10-28T04:42:53.291Z,95455.09
2023-10-28T04:45:22.531Z,95450.44
2023-10-28T04:47:53.050Z,95446.22
2023-10-28T04:50:22.067Z,95442.84
2023-10-28T04:52:51.136Z,95443.69
2023-10-28T04:55:19.437Z,95449.78
2023-10-28T04:57:47.522Z,95457.59
2023-10-28T05:00:17.945Z,95451.97
2023-10-28T05:02:46.817Z,95455.19
2023-10-28T05:05:17.423Z,95457.25
2023-10-28T05:07:46.189Z,95457.63
2023-10-28T05:10:14.667Z,95455.56
2023-10-28T05:12:43.279Z,95465.06
2023-10-28T05:15:12.183Z,95468.47
2023-10-28T05:17:42.322Z,95465.03
2023-10-28T05:20:11.519Z,95463.81
2023-10-28T05:22:42.709Z,95466.44
2023-10-28T05:25:11.134Z,95468.44
2023-10-28T05:27:39.595Z,95469.59
2023-10-28T05:30:12.532Z,95465.53
2023-10-28T05:32:41.552Z,95473.16
2023-10-28T05:35:12.263Z,95472.75
2023-10-28T05:37:42.009Z,95470.56
2023-10-28T05:40:14.332Z,95474.31
2023-10-28T05:42:42.999Z,95473.41
2023-10-28T05:45:11.970Z,95467.16
2023-10-28T05:47:40.438Z,95466.94
2023-10-28T05:50:09.661Z,95478.22
2023-10-28T05:52:39.764Z,95481.28
2023-10-28T05:55:13.758Z,95484.66
2023-10-28T05:57:42.582Z,95491.28
2023-10-28T06:00:12.506Z,95491.94
2023-10-28T06:02:41.408Z,95489.88
2023-10-28T06:05:10.691Z,95499.75
2023-10-28T06:07:39.944Z,95493.84
2023-10-28T06:10:11.953Z,95498.34
2023-10-28T06:12:40.258Z,95498.34
2023-10-28T06:15:09.861Z,95500.56
2023-10-28T06:17:38.040Z,95512.41
2023-10-28T06:20:07.903Z,95510.16
2023-10-28T06:22:36.586Z,95513.38
2023-10-28T06:25:05.662Z,95519.78
2023-10-28T06:27:35.608Z,95514.31
2023-10-28T06:30:04.984Z,95519.69
2023-10-28T06:32:33.577Z,95516.66
2023-10-28T06:35:02.145Z,95529.78
2023-10-28T06:37:31.028Z,95525.84
2023-10-28T06:39:59.871Z,95529.84
2023-10-28T06:42:28.303Z,95531.84
2023-10-28T06:44:57.938Z,95536.00
2023-10-28T06:47:26.575Z,95545.84
2023-10-28T06:49:54.948Z,95534.91
2023-10-28T06:52:23.781Z,95546.81
2023-10-28T06:54:52.921Z,95545.13
2023-10-28T06:57:21.294Z,95546.59
2023-10-28T06:59:50.114Z,95550.38
2023-10-28T07:02:20.510Z,95546.88
2023-10-28T07:04:49.050Z,95546.31
2023-10-28T07:07:17.376Z,95551.13
2023-10-28T07:09:46.092Z,95557.72
2023-10-28T07:12:14.646Z,95560.03
2023-10-28T07:14:43.992Z,95560.63
2023-10-28T07:17:12.621Z,95566.03
2023-10-28T07:19:43.732Z,95564.56
2023-10-28T07:22:12.478Z,95563.41
2023-10-28T07:24:40.757Z,95566.38
2023-10-28T07:27:09.417Z,95571.28
2023-10-28T07:29:39.323Z,95577.56
2023-10-28T07:32:08.812Z,95577.56
2023-10-28T07:34:42.163Z,95574.25
2023-10-28T07:37:11.976Z,95582.09
2023-10-28T07:39:42.829Z,95586.31
2023-10-28T07:42:11.043Z,95590.41
2023-10-28T07:44:41.153Z,95587.22
2023-10-28T07:47:12.518Z,95583.22
2023-10-28T07:49:42.823Z,95594.78
2023-10-28T07:52:11.086Z,95592.47
2023-10-28T07:54:39.316Z,95606.34
2023-10-28T07:57:07.847Z,95604.72
2023-10-28T07:59:36.676Z,95610.00
2023-10-28T08:02:05.258Z,95613.91
2023-10-28T08:04:34.404Z,95624.44
2023-10-28T08:07:04.963Z,95616.69
2023-10-28T08:09:33.053Z,95629.94
2023-10-28T08:12:01.673Z,95638.56
2023-10-28T08:14:33.010Z,95626.28
2023-10-28T08:17:01.629Z,95636.25
2023-10-28T08:19:30.773Z,95642.97
2023-10-28T08:22:00.918Z,95633.59
2023-10-28T08:24:31.193Z,95640.34
2023-10-28T08:26:59.778Z,95634.94
2023-10-28T08:29:27.875Z,95642.25
2023-10-28T08:31:57.795Z,95649.13
2023-10-28T08:34:26.483Z,95653.66
2023-10-28T08:36:55.787Z,95654.38
2023-10-28T08:39:25.224Z,95648.75
2023-10-28T08:41:57.323Z,95654.06
2023-10-28T08:44:30.456Z,95655.81
2023-10-28T08:46:59.240Z,95655.97
2023-10-28T08:49:30.794Z,95658.44
2023-10-28T08:52:03.708Z,95659.25
2023-10-28T08:54:35.324Z,95649.13
2023-10-28T08:57:07.032Z,95658.75
2023-10-28T08:59:35.520Z,95655.75
2023-10-28T09:02:09.619Z,95666.03
2023-10-28T09:04:38.097Z,95669.09
2023-10-28T09:07:06.903Z,95669.31
2023-10-28T09:09:39.171Z,95681.91
2023-10-28T09:12:11.664Z,95673.38
2023-10-28T09:14:41.362Z,95677.53
2023-10-28T09:17:10.231Z,95681.81
2023-10-28T09:19:39.282Z,95681.34
2023-10-28T09:22:08.033Z,95673.94
2023-10-28T09:24:36.622Z,95678.84
2023-10-28T09:27:05.833Z,95683.56
2023-10-28T09:29:36.465Z,95689.44
2023-10-28T09:32:07.522Z,95692.06
2023-10-28T09:34:36.138Z,95699.75
2023-10-28T09:37:05.865Z,95698.84
2023-10-28T09:39:35.155Z,95700.72
2023-10-28T09:42:03.790Z,95698.31
2023-10-28T09:44:35.553Z,95708.75
2023-10-28T09:47:06.623Z,95708.03
2023-10-28T09:49:36.242Z,95703.81
2023-10-28T09:52:09.292Z,95708.88
2023-10-28T09:54:39.270Z,95715.16
2023-10-28T09:57:09.143Z,95722.22
2023-10-28T09:59:41.373Z,95720.91
2023-10-28T10:02:29.973Z,95734.06
2023-10-28T10:05:03.721Z,95726.50
2023-10-28T10:07:32.202Z,95722.19
2023-10-28T10:10:11.318Z,95717.00
2023-10-28T10:12:39.829Z,95722.56
2023-10-28T10:15:11.843Z,95723.28
2023-10-28T10:17:50.658Z,95721.16
2023-10-28T10:20:26.671Z,95722.34
2023-10-28T10:23:01.857Z,95718.56
2023-10-28T10:25:34.083Z,95717.50
2023-10-28T10:28:14.526Z,95719.56
2023-10-28T10:30:45.061Z,95715.91
2023-10-28T10:33:15.518Z,95713.59
2023-10-28T10:35:50.461Z,95719.38
2023-10-28T10:38:28.803Z,95721.34
2023-10-28T10:40:59.956Z,95720.66
2023-10-28T10:43:32.994Z,95721.53
2023-10-28T10:46:02.035Z,95722.66
2023-10-28T10:48:34.420Z,95720.09
2023-10-28T10:51:03.632Z,95723.47
2023-10-28T10:53:41.972Z,95731.31
2023-10-28T10:56:20.395Z,95739.59
2023-10-28T10:58:49.141Z,95734.97
2023-10-28T11:01:17.432Z,95741.78
2023-10-28T11:03:47.297Z,95739.00
2023-10-28T11:06:15.769Z,95752.50
2023-10-28T11:08:44.092Z,95754.09
2023-10-28T11:11:14.599Z,95756.84
2023-10-28T11:13:44.522Z,95759.81
2023-10-28T11:16:21.910Z,95757.72
2023-10-28T11:18:51.594Z,95760.69
2023-10-28T11:21:23.816Z,95762.47
2023-10-28T11:23:53.112Z,95765.69
2023-10-28T11:26:21.210Z,95759.47
2023-10-28T11:28:49.731Z,95766.94
2023-10-28T11:31:21.439Z,95770.53
2023-10-28T11:33:53.636Z,95755.69
2023-10-28T11:36:24.437Z,95759.69
2023-10-28T11:38:53.285Z,95760.50
2023-10-28T11:41:23.446Z,95756.31
2023-10-28T11:43:52.605Z,95743.25
2023-10-28T11:46:22.433Z,95755.94
2023-10-28T11:48:52.587Z,95754.34
2023-10-28T11:51:20.598Z,95758.91
2023-10-28T11:53:49.417Z,95751.81
2023-10-28T11:56:20.934Z,95755.97
2023-10-28T11:58:52.126Z,95761.13
2023-10-28T12:01:20.729Z,95759.25
2023-10-28T12:03:49.050Z,95751.56
2023-10-28T12:06:29.528Z,95743.97
2023-10-28T12:08:59.807Z,95742.69
2023-10-28T12:11:28.521Z,95739.88
2023-10-28T12:13:58.328Z,95746.38
2023-10-28T12:16:26.645Z,95749.41
2023-10-28T12:18:55.278Z,95756.56
2023-10-28T12:21:24.779Z,95752.91
2023-10-28T12:23:52.945Z,95751.09
2023-10-28T12:26:21.063Z,95758.00
2023-10-28T12:28:49.918Z,95754.22
2023-10-28T12:31:18.331Z,95762.88
2023-10-28T12:33:46.890Z,95765.00
2023-10-28T12:36:17.352Z,95755.69
2023-10-28T12:38:47.095Z,95757.16
2023-10-28T12:41:15.635Z,95756.34
2023-10-28T12:43:44.029Z,95753.53
2023-10-28T12:46:12.994Z,95761.25
2023-10-28T12:48:41.269Z,95760.28
2023-10-28T12:51:09.690Z,95760.38
2023-10-28T12:53:38.030Z,95761.34
2023-10-28T12:56:10.339Z,95769.69
2023-10-28T12:58:38.736Z,95764.78
2023-10-28T13:01:06.931Z,95769.06
2023-10-28T13:03:35.225Z,95770.50
2023-10-28T13:06:04.202Z,95782.66
2023-10-28T13:08:33.557Z,95776.63
2023-10-28T13:11:01.848Z,95782.16
2023-10-28T13:13:31.464Z,95781.38
2023-10-28T13:16:00.453Z,95792.16
2023-10-28T13:18:28.766Z,95793.19
2023-10-28T13:21:00.696Z,95792.63
2023-10-28T13:23:28.949Z,95793.88
2023-10-28T13:25:57.190Z,95799.06
2023-10-28T13:28:25.369Z,95794.09
2023-10-28T13:30:54.914Z,95800.53
2023-10-28T13:33:23.272Z,95801.81
2023-10-28T13:35:51.382Z,95807.75
2023-10-28T13:38:19.600Z,95805.00
2023-10-28T13:40:47.817Z,95816.00
2023-10-28T13:43:16.533Z,95815.09
2023-10-28T13:45:44.701Z,95817.16
2023-10-28T13:48:17.546Z,95814.75
2023-10-28T13:50:47.008Z,95826.09
2023-10-28T13:53:15.297Z,95822.88
2023-10-28T13:55:43.587Z,95830.22
2023-10-28T13:58:11.747Z,95828.50
2023-10-28T14:00:39.905Z,95826.91
2023-10-28T14:03:08.099Z,95830.44
2023-10-28T14:05:39.724Z,95836.53
2023-10-28T14:08:07.908Z,95836.06
2023-10-28T14:10:36.369Z,95831.94
2023-10-28T14:13:04.868Z,95840.44
2023-10-28T14:15:32.940Z,95835.03
2023-10-28T14:18:01.137Z,95829.19
2023-10-28T14:20:29.897Z,95829.41
2023-10-28T14:22:59.388Z,95833.22
2023-10-28T14:25:28.004Z,95833.69
2023-10-28T14:27:56.203Z,95832.28
2023-10-28T14:30:24.449Z,95831.47
2023-10-28T14:32:52.636Z,95827.91
2023-10-28T14:35:20.759Z,95824.25
2023-10-28T14:37:48.890Z,95827.34
2023-10-28T14:40:18.719Z,95822.88
2023-10-28T14:42:46.982Z,95822.44
2023-10-28T14:45:15.241Z,95822.31
2023-10-28T14:47:44.823Z,95830.41
2023-10-28T14:50:15.050Z,95833.03
2023-10-28T14:52:43.712Z,95830.88
2023-10-28T14:55:13.055Z,95828.47
2023-10-28T14:57:53.875Z,95828.88
2023-10-28T15:00:31.355Z,95830.69
2023-10-28T15:02:59.808Z,95828.28
2023-10-28T15:05:28.712Z,95823.31
2023-10-28T15:07:56.920Z,95823.63
2023-10-28T15:10:25.045Z,95831.31
2023-10-28T15:12:54.679Z,95824.66
2023-10-28T15:15:25.167Z,95833.81
2023-10-28T15:17:53.800Z,95833.81
2023-10-28T15:20:22.076Z,95829.78
2023-10-28T15:22:50.198Z,95829.06
2023-10-28T15:25:19.076Z,95829.50
2023-10-28T15:27:47.377Z,95831.72
2023-10-28T15:30:18.168Z,95837.16
2023-10-28T15:32:46.485Z,95836.09
2023-10-28T15:35:14.681Z,95838.44
2023-10-28T15:37:44.363Z,95839.78
2023-10-28T15:40:17.979Z,95839.28
2023-10-28T15:42:46.375Z,95848.22
2023-10-28T15:45:14.994Z,95841.34
2023-10-28T15:47:44.556Z,95851.00
2023-10-28T15:50:13.975Z,95851.78
2023-10-28T15:52:42.599Z,95855.44
2023-10-28T15:55:10.871Z,95856.69
2023-10-28T15:57:38.991Z,95859.25
2023-10-28T16:00:09.272Z,95857.22
2023-10-28T16:02:37.676Z,95866.78
2023-10-28T16:05:08.782Z,95871.03
2023-10-28T16:07:37.087Z,95870.22
2023-10-28T16:10:06.381Z,95869.19
2023-10-28T16:12:35.734Z,95872.84
2023-10-28T16:15:07.039Z,95870.06
2023-10-28T16:17:35.413Z,95870.88
2023-10-28T16:20:04.881Z,95867.88
2023-10-28T16:22:34.830Z,95865.03
2023-10-28T16:25:03.345Z,95865.09
2023-10-28T16:27:31.639Z,95875.03
2023-10-28T16:29:59.744Z,95874.91
2023-10-28T16:32:28.058Z,95881.47
2023-10-28T16:34:56.438Z,95891.25
2023-10-28T16:37:24.751Z,95892.72
2023-10-28T16:39:55.822Z,95900.41
2023-10-28T16:42:25.022Z,95906.31
2023-10-28T16:44:53.151Z,95905.16
2023-10-28T16:47:21.585Z,95910.81
2023-10-28T16:49:50.595Z,95905.16
2023-10-28T16:52:19.062Z,95902.50
2023-10-28T16:54:47.622Z,95912.50
2023-10-28T16:57:18.797Z,95917.41
2023-10-28T16:59:47.298Z,95921.63
2023-10-28T17:02:15.695Z,95925.13
2023-10-28T17:04:43.875Z,95933.66
2023-10-28T17:07:12.066Z,95936.00
2023-10-28T17:09:40.235Z,95932.66
2023-10-28T17:12:11.169Z,95930.22
2023-10-28T17:14:40.744Z,95933.81
2023-10-28T17:17:12.140Z,95929.72
2023-10-28T17:19:41.419Z,95935.16
2023-10-28T17:22:09.675Z,95939.56
2023-10-28T17:24:37.854Z,95941.75
2023-10-28T17:27:06.783Z,95942.56
2023-10-28T17:29:34.910Z,95943.69
2023-10-28T17:32:04.890Z,95940.84
2023-10-28T17:34:36.009Z,95945.47
2023-10-28T17:37:04.201Z,95947.66
2023-10-28T17:39:32.457Z,95956.16
2023-10-28T17:42:00.652Z,95956.91
2023-10-28T17:44:28.940Z,95959.25
2023-10-28T17:46:57.659Z,95960.06
2023-10-28T17:49:27.777Z,95957.22
2023-10-28T17:51:56.985Z,95955.22
2023-10-28T17:54:26.003Z,95957.72
2023-10-28T17:56:54.985Z,95960.88
2023-10-28T17:59:23.221Z,95953.25
2023-10-28T18:01:51.525Z,95958.13
2023-10-28T18:04:19.637Z,95959.00
2023-10-28T18:06:49.128Z,95959.22
2023-10-28T18:09:17.300Z,95957.22
2023-10-28T18:11:45.538Z,95956.41
2023-10-28T18:14:13.641Z,95963.41
2023-10-28T18:16:41.998Z,95966.25
2023-10-28T18:19:10.202Z,95964.19
2023-10-28T18:21:38.389Z,95957.72
2023-10-28T18:24:09.507Z,95958.78
2023-10-28T18:26:37.711Z,95966.25
2023-10-28T18:29:06.164Z,95959.97
2023-10-28T18:31:34.591Z,95957.50
2023-10-28T18:34:04.149Z,95959.69
2023-10-28T18:36:32.396Z,95954.91
2023-10-28T18:39:00.565Z,95948.41
2023-10-28T18:41:30.732Z,95960.53
2023-10-28T18:43:58.977Z,95954.88
2023-10-28T18:46:27.883Z,95953.03
2023-10-28T18:48:56.011Z,95959.09
2023-10-28T18:51:24.756Z,95968.53
2023-10-28T18:53:52.941Z,95964.09
2023-10-28T18:56:25.654Z,95964.94
2023-10-28T18:58:55.412Z,95967.81
2023-10-28T19:01:24.052Z,95962.69
2023-10-28T19:03:52.773Z,95961.72
2023-10-28T19:06:20.976Z,95960.13
2023-10-28T19:08:49.901Z,95966.25
2023-10-28T19:11:18.096Z,95967.44
2023-10-28T19:13:46.880Z,95964.59
2023-10-28T19:16:17.269Z,95970.25
2023-10-28T19:18:45.418Z,95975.16
2023-10-28T19:21:13.607Z,95974.16
2023-10-28T19:23:41.878Z,95977.00
2023-10-28T19:26:10.306Z,95977.00
2023-10-28T19:28:39.094Z,95976.38
2023-10-28T19:31:07.153Z,95976.03
2023-10-28T19:33:37.142Z,95983.47
2023-10-28T19:36:07.518Z,95976.19
2023-10-28T19:38:36.219Z,95983.34
2023-10-28T19:41:04.391Z,95993.41
2023-10-28T19:43:34.060Z,95988.91
2023-10-28T19:46:07.256Z,95995.63
2023-10-28T19:48:39.259Z,96003.09
2023-10-28T19:51:08.756Z,96001.31
2023-10-28T19:53:37.902Z,95997.81
2023-10-28T19:56:08.058Z,95997.44
2023-10-28T19:58:39.154Z,95996.63
2023-10-28T20:01:07.612Z,96005.94
2023-10-28T20:03:38.015Z,96006.56
2023-10-28T20:06:07.724Z,96006.78
2023-10-28T20:08:37.978Z,96005.22
2023-10-28T20:11:09.678Z,96013.97
2023-10-28T20:13:39.261Z,96011.00
2023-10-28T20:16:07.883Z,96005.16
2023-10-28T20:18:37.518Z,96003.34
2023-10-28T20:21:05.871Z,96005.84
2023-10-28T20:23:34.125Z,96010.06
2023-10-28T20:26:02.487Z,96007.81
2023-10-28T20:28:30.687Z,96006.84
2023-10-28T20:31:03.856Z,96017.13
2023-10-28T20:33:32.590Z,96017.53
2023-10-28T20:36:02.359Z,96021.59
2023-10-28T20:38:30.587Z,96018.38
2023-10-28T20:40:58.683Z,96018.22
2023-10-28T20:43:26.914Z,96016.50
2023-10-28T20:45:55.155Z,96015.47
2023-10-28T20:48:23.964Z,96019.38
2023-10-28T20:50:52.342Z,96020.53
2023-10-28T20:53:23.674Z,96028.84
2023-10-28T20:55:53.601Z,96028.06
2023-10-28T20:58:22.181Z,96026.59
2023-10-28T21:00:50.493Z,96024.19
2023-10-28T21:03:19.036Z,96023.94
2023-10-28T21:05:47.254Z,96021.34
2023-10-28T21:08:15.392Z,96028.63
2023-10-28T21:10:45.251Z,96025.38
2023-10-28T21:13:13.354Z,96022.13
2023-10-28T21:15:41.579Z,96020.28
2023-10-28T21:18:14.118Z,96007.03
2023-10-28T21:20:43.113Z,96012.13
2023-10-28T21:23:11.474Z,96019.00
2023-10-28T21:25:39.624Z,96021.09
2023-10-28T21:28:09.248Z,96028.97
2023-10-28T21:30:38.031Z,96025.53
2023-10-28T21:33:06.464Z,96030.41
2023-10-28T21:35:34.793Z,96033.84
2023-10-28T21:38:03.222Z,96025.78
2023-10-28T21:40:31.369Z,96036.94
2023-10-28T21:43:00.899Z,96038.56
2023-10-28T21:45:31.407Z,96033.69
2023-10-28T21:48:00.279Z,96035.13
2023-10-28T21:50:28.823Z,96035.13
2023-10-28T21:52:57.106Z,96034.91
2023-10-28T21:55:25.345Z,96039.56
2023-10-28T21:57:53.451Z,96033.31
2023-10-28T22:00:37.041Z,96032.88
2023-10-28T22:03:11.106Z,96028.84
2023-10-28T22:05:39.491Z,96035.72
2023-10-28T22:08:08.610Z,96041.38
2023-10-28T22:10:36.745Z,96034.53
2023-10-28T22:13:05.462Z,96036.13
2023-10-28T22:15:33.818Z,96024.19
2023-10-28T22:18:01.935Z,96015.88
2023-10-28T22:20:31.531Z,96010.63
2023-10-28T22:23:00.086Z,96013.47
2023-10-28T22:25:29.038Z,96014.50
2023-10-28T22:28:11.186Z,96016.91
2023-10-28T22:30:42.849Z,96014.72
2023-10-28T22:33:11.190Z,96010.47
2023-10-28T22:35:41.300Z,96008.69
2023-10-28T22:38:10.409Z,96010.28
2023-10-28T22:40:41.580Z,96023.63
2023-10-28T22:43:11.023Z,96016.16
2023-10-28T22:45:39.471Z,96016.97
2023-10-28T22:48:07.713Z,96024.03
2023-10-28T22:50:37.852Z,96030.88
2023-10-28T22:53:09.918Z,96027.25
2023-10-28T22:55:38.091Z,96027.25
2023-10-28T22:58:08.342Z,96028.44
2023-10-28T23:00:36.576Z,96035.88
2023-10-28T23:03:08.462Z,96045.53
2023-10-28T23:05:37.336Z,96039.31
2023-10-28T23:08:07.313Z,96043.31
2023-10-28T23:10:35.836Z,96041.69
2023-10-28T23:13:03.912Z,96048.91
2023-10-28T23:15:32.303Z,96042.47
2023-10-28T23:18:00.458Z,96051.09
2023-10-28T23:20:28.806Z,96051.69
2023-10-28T23:22:57.561Z,96053.28
2023-10-28T23:25:27.169Z,96057.75
2023-10-28T23:27:55.349Z,96065.44
2023-10-28T23:30:27.375Z,96063.06
2023-10-28T23:32:55.705Z,96058.22
2023-10-28T23:35:25.520Z,96063.06
2023-10-28T23:37:54.116Z,96058.00
2023-10-28T23:40:22.254Z,96055.59
2023-10-28T23:42:51.797Z,96057.41
2023-10-28T23:45:19.969Z,96047.34
2023-10-28T23:47:48.205Z,96048.16
2023-10-28T23:50:16.472Z,96038.13
2023-10-28T23:52:44.850Z,96039.72
2023-10-28T23:55:13.059Z,96039.31
2023-10-28T23:57:43.135Z,96042.31
